sensor_id;sensor_type;location;lat;lon;timestamp;P1;durP1;ratioP1;P2;durP2;ratioP2
29006;SDS011;16104;48.642;9.008;2023-02-28T00:00:36;5.00;;;2.80;;
29006;SDS011;16104;48.642;9.008;2023-02-28T00:05:33;3.92;;;2.55;;
29006;SDS011;16104;48.642;9.008;2023-02-28T00:10:31;4.18;;;2.92;;
29006;SDS011;16104;48.642;9.008;2023-02-28T00:15:27;3.58;;;2.53;;
29006;SDS011;16104;48.642;9.008;2023-02-28T00:20:23;3.90;;;2.67;;
29006;SDS011;16104;48.642;9.008;2023-02-28T00:25:20;5.78;;;2.75;;
29006;SDS011;16104;48.642;9.008;2023-02-28T00:30:18;6.25;;;2.97;;
29006;SDS011;16104;48.642;9.008;2023-02-28T00:35:16;7.55;;;3.42;;
29006;SDS011;16104;48.642;9.008;2023-02-28T00:40:11;4.88;;;2.97;;
29006;SDS011;16104;48.642;9.008;2023-02-28T00:45:07;5.82;;;2.97;;
29006;SDS011;16104;48.642;9.008;2023-02-28T00:50:03;7.40;;;2.95;;
29006;SDS011;16104;48.642;9.008;2023-02-28T00:54:59;5.72;;;3.33;;
29006;SDS011;16104;48.642;9.008;2023-02-28T00:59:55;7.50;;;2.80;;
29006;SDS011;16104;48.642;9.008;2023-02-28T02:00:49;5.43;;;3.10;;
29006;SDS011;16104;48.642;9.008;2023-02-28T02:05:45;5.20;;;3.15;;
29006;SDS011;16104;48.642;9.008;2023-02-28T02:10:43;5.05;;;3.05;;
29006;SDS011;16104;48.642;9.008;2023-02-28T03:01:44;7.25;;;3.50;;
29006;SDS011;16104;48.642;9.008;2023-02-28T03:06:39;6.35;;;3.75;;
29006;SDS011;16104;48.642;9.008;2023-02-28T03:11:35;5.07;;;3.95;;
29006;SDS011;16104;48.642;9.008;2023-02-28T04:02:20;6.18;;;4.53;;
29006;SDS011;16104;48.642;9.008;2023-02-28T04:07:16;5.93;;;3.95;;
29006;SDS011;16104;48.642;9.008;2023-02-28T04:12:12;5.93;;;3.97;;
29006;SDS011;16104;48.642;9.008;2023-02-28T04:17:07;7.50;;;4.53;;
29006;SDS011;16104;48.642;9.008;2023-02-28T04:22:03;8.10;;;4.35;;
29006;SDS011;16104;48.642;9.008;2023-02-28T04:26:58;7.97;;;4.38;;
29006;SDS011;16104;48.642;9.008;2023-02-28T04:31:54;6.55;;;4.97;;
29006;SDS011;16104;48.642;9.008;2023-02-28T04:36:54;9.88;;;4.78;;
29006;SDS011;16104;48.642;9.008;2023-02-28T04:41:50;7.63;;;4.93;;
29006;SDS011;16104;48.642;9.008;2023-02-28T04:46:47;8.68;;;4.50;;
29006;SDS011;16104;48.642;9.008;2023-02-28T04:51:43;6.70;;;4.63;;
29006;SDS011;16104;48.642;9.008;2023-02-28T04:56:38;7.40;;;4.80;;
29006;SDS011;16104;48.642;9.008;2023-02-28T05:01:34;7.10;;;4.78;;
29006;SDS011;16104;48.642;9.008;2023-02-28T05:06:32;6.97;;;4.38;;
29006;SDS011;16104;48.642;9.008;2023-02-28T05:11:28;8.75;;;5.07;;
29006;SDS011;16104;48.642;9.008;2023-02-28T05:16:29;7.60;;;5.13;;
29006;SDS011;16104;48.642;9.008;2023-02-28T05:21:32;6.72;;;4.68;;
29006;SDS011;16104;48.642;9.008;2023-02-28T05:26:36;7.33;;;5.10;;
29006;SDS011;16104;48.642;9.008;2023-02-28T05:31:34;8.40;;;5.05;;
29006;SDS011;16104;48.642;9.008;2023-02-28T05:36:30;6.60;;;4.80;;
29006;SDS011;16104;48.642;9.008;2023-02-28T05:41:26;8.15;;;5.50;;
29006;SDS011;16104;48.642;9.008;2023-02-28T05:46:21;6.65;;;4.90;;
29006;SDS011;16104;48.642;9.008;2023-02-28T05:51:17;8.68;;;5.50;;
29006;SDS011;16104;48.642;9.008;2023-02-28T05:56:13;11.02;;;5.63;;
29006;SDS011;16104;48.642;9.008;2023-02-28T06:06:25;8.05;;;5.50;;
29006;SDS011;16104;48.642;9.008;2023-02-28T06:11:20;9.52;;;5.97;;
29006;SDS011;16104;48.642;9.008;2023-02-28T06:16:16;10.02;;;5.63;;
29006;SDS011;16104;48.642;9.008;2023-02-28T06:21:12;8.00;;;5.50;;
29006;SDS011;16104;48.642;9.008;2023-02-28T06:26:07;10.10;;;5.80;;
29006;SDS011;16104;48.642;9.008;2023-02-28T06:31:09;10.10;;;6.30;;
29006;SDS011;16104;48.642;9.008;2023-02-28T06:36:07;9.95;;;6.05;;
29006;SDS011;16104;48.642;9.008;2023-02-28T06:41:04;9.70;;;6.85;;
29006;SDS011;16104;48.642;9.008;2023-02-28T06:46:00;8.88;;;6.13;;
29006;SDS011;16104;48.642;9.008;2023-02-28T06:56:03;61.78;;;33.80;;
29006;SDS011;16104;48.642;9.008;2023-02-28T07:01:04;23.17;;;12.35;;
29006;SDS011;16104;48.642;9.008;2023-02-28T07:06:00;12.13;;;7.80;;
29006;SDS011;16104;48.642;9.008;2023-02-28T07:10:56;24.73;;;19.35;;
29006;SDS011;16104;48.642;9.008;2023-02-28T07:15:53;13.90;;;8.00;;
29006;SDS011;16104;48.642;9.008;2023-02-28T07:25:49;11.25;;;7.57;;
29006;SDS011;16104;48.642;9.008;2023-02-28T07:30:45;21.27;;;14.75;;
29006;SDS011;16104;48.642;9.008;2023-02-28T07:35:40;12.57;;;8.45;;
29006;SDS011;16104;48.642;9.008;2023-02-28T07:40:36;12.88;;;8.77;;
29006;SDS011;16104;48.642;9.008;2023-02-28T07:45:32;13.85;;;8.45;;
29006;SDS011;16104;48.642;9.008;2023-02-28T07:50:29;13.57;;;8.00;;
29006;SDS011;16104;48.642;9.008;2023-02-28T07:55:25;11.70;;;7.72;;
29006;SDS011;16104;48.642;9.008;2023-02-28T08:00:21;15.20;;;8.40;;
29006;SDS011;16104;48.642;9.008;2023-02-28T08:05:17;10.48;;;7.60;;
29006;SDS011;16104;48.642;9.008;2023-02-28T08:10:13;13.98;;;8.85;;
29006;SDS011;16104;48.642;9.008;2023-02-28T08:15:08;18.38;;;12.60;;
29006;SDS011;16104;48.642;9.008;2023-02-28T08:20:04;13.48;;;8.63;;
29006;SDS011;16104;48.642;9.008;2023-02-28T08:25:00;15.15;;;9.35;;
29006;SDS011;16104;48.642;9.008;2023-02-28T08:29:56;11.55;;;8.20;;
29006;SDS011;16104;48.642;9.008;2023-02-28T08:34:51;12.40;;;7.82;;
29006;SDS011;16104;48.642;9.008;2023-02-28T08:39:47;13.60;;;8.25;;
29006;SDS011;16104;48.642;9.008;2023-02-28T08:44:42;19.70;;;11.55;;
29006;SDS011;16104;48.642;9.008;2023-02-28T08:49:38;15.35;;;10.65;;
29006;SDS011;16104;48.642;9.008;2023-02-28T08:54:33;13.88;;;9.63;;
29006;SDS011;16104;48.642;9.008;2023-02-28T08:59:31;19.85;;;10.52;;
29006;SDS011;16104;48.642;9.008;2023-02-28T09:04:26;15.88;;;9.65;;
29006;SDS011;16104;48.642;9.008;2023-02-28T09:09:25;18.38;;;10.40;;
29006;SDS011;16104;48.642;9.008;2023-02-28T09:14:21;26.02;;;16.70;;
29006;SDS011;16104;48.642;9.008;2023-02-28T09:19:16;42.17;;;25.73;;
29006;SDS011;16104;48.642;9.008;2023-02-28T09:24:12;47.90;;;31.85;;
29006;SDS011;16104;48.642;9.008;2023-02-28T09:29:09;29.75;;;16.55;;
29006;SDS011;16104;48.642;9.008;2023-02-28T09:34:05;40.17;;;23.23;;
29006;SDS011;16104;48.642;9.008;2023-02-28T09:39:01;86.80;;;43.45;;
29006;SDS011;16104;48.642;9.008;2023-02-28T09:43:59;132.70;;;61.28;;
29006;SDS011;16104;48.642;9.008;2023-02-28T09:48:58;48.20;;;23.02;;
29006;SDS011;16104;48.642;9.008;2023-02-28T09:53:57;19.95;;;12.32;;
29006;SDS011;16104;48.642;9.008;2023-02-28T09:58:55;25.27;;;16.50;;
29006;SDS011;16104;48.642;9.008;2023-02-28T10:03:56;17.25;;;11.60;;
29006;SDS011;16104;48.642;9.008;2023-02-28T10:09:00;19.90;;;10.65;;
29006;SDS011;16104;48.642;9.008;2023-02-28T10:14:18;18.70;;;12.57;;
29006;SDS011;16104;48.642;9.008;2023-02-28T10:24:32;17.58;;;12.68;;
29006;SDS011;16104;48.642;9.008;2023-02-28T10:29:32;16.02;;;10.23;;
29006;SDS011;16104;48.642;9.008;2023-02-28T10:34:28;14.25;;;8.98;;
29006;SDS011;16104;48.642;9.008;2023-02-28T10:39:34;16.95;;;9.52;;
29006;SDS011;16104;48.642;9.008;2023-02-28T10:44:35;13.82;;;9.52;;
29006;SDS011;16104;48.642;9.008;2023-02-28T10:49:30;20.95;;;9.90;;
29006;SDS011;16104;48.642;9.008;2023-02-28T10:54:28;14.15;;;9.13;;
29006;SDS011;16104;48.642;9.008;2023-02-28T10:59:29;17.77;;;10.85;;
29006;SDS011;16104;48.642;9.008;2023-02-28T11:09:29;15.43;;;10.18;;
29006;SDS011;16104;48.642;9.008;2023-02-28T11:14:31;14.48;;;9.55;;
29006;SDS011;16104;48.642;9.008;2023-02-28T11:19:38;17.70;;;9.63;;
29006;SDS011;16104;48.642;9.008;2023-02-28T11:24:37;16.02;;;9.60;;
29006;SDS011;16104;48.642;9.008;2023-02-28T11:29:37;47.08;;;26.63;;
29006;SDS011;16104;48.642;9.008;2023-02-28T11:34:42;34.75;;;19.35;;
29006;SDS011;16104;48.642;9.008;2023-02-28T11:39:39;25.45;;;15.38;;
29006;SDS011;16104;48.642;9.008;2023-02-28T11:44:39;20.20;;;12.00;;
29006;SDS011;16104;48.642;9.008;2023-02-28T11:50:35;20.33;;;11.82;;
29006;SDS011;16104;48.642;9.008;2023-02-28T12:05:57;20.08;;;11.48;;
29006;SDS011;16104;48.642;9.008;2023-02-28T12:26:42;14.45;;;10.60;;
29006;SDS011;16104;48.642;9.008;2023-02-28T12:31:45;12.55;;;9.45;;
29006;SDS011;16104;48.642;9.008;2023-02-28T12:36:44;15.98;;;9.95;;
29006;SDS011;16104;48.642;9.008;2023-02-28T12:42:17;12.55;;;8.80;;
29006;SDS011;16104;48.642;9.008;2023-02-28T12:47:28;17.58;;;9.80;;
29006;SDS011;16104;48.642;9.008;2023-02-28T12:58:20;36.90;;;21.75;;
29006;SDS011;16104;48.642;9.008;2023-02-28T13:03:34;16.55;;;11.10;;
29006;SDS011;16104;48.642;9.008;2023-02-28T13:13:48;18.35;;;10.27;;
29006;SDS011;16104;48.642;9.008;2023-02-28T13:18:53;13.73;;;10.00;;
29006;SDS011;16104;48.642;9.008;2023-02-28T13:24:05;14.73;;;9.07;;
29006;SDS011;16104;48.642;9.008;2023-02-28T13:34:14;14.63;;;11.57;;
29006;SDS011;16104;48.642;9.008;2023-02-28T13:44:31;17.35;;;13.05;;
29006;SDS011;16104;48.642;9.008;2023-02-28T13:55:29;13.37;;;9.70;;
29006;SDS011;16104;48.642;9.008;2023-02-28T14:11:31;12.60;;;9.63;;
29006;SDS011;16104;48.642;9.008;2023-02-28T14:16:41;13.05;;;9.00;;
29006;SDS011;16104;48.642;9.008;2023-02-28T14:21:43;10.43;;;8.07;;
29006;SDS011;16104;48.642;9.008;2023-02-28T14:26:57;13.70;;;9.20;;
29006;SDS011;16104;48.642;9.008;2023-02-28T14:37:25;13.90;;;9.57;;
29006;SDS011;16104;48.642;9.008;2023-02-28T14:42:32;11.30;;;8.90;;
29006;SDS011;16104;48.642;9.008;2023-02-28T14:47:38;13.25;;;8.93;;
29006;SDS011;16104;48.642;9.008;2023-02-28T14:52:34;12.95;;;9.65;;
29006;SDS011;16104;48.642;9.008;2023-02-28T14:57:34;11.90;;;9.32;;
29006;SDS011;16104;48.642;9.008;2023-02-28T15:02:34;13.00;;;9.82;;
29006;SDS011;16104;48.642;9.008;2023-02-28T15:07:30;12.57;;;9.30;;
29006;SDS011;16104;48.642;9.008;2023-02-28T15:12:26;13.15;;;8.55;;
29006;SDS011;16104;48.642;9.008;2023-02-28T15:17:22;11.48;;;8.35;;
29006;SDS011;16104;48.642;9.008;2023-02-28T15:22:22;11.55;;;8.80;;
29006;SDS011;16104;48.642;9.008;2023-02-28T15:27:31;17.33;;;9.52;;
29006;SDS011;16104;48.642;9.008;2023-02-28T15:32:32;12.70;;;9.48;;
29006;SDS011;16104;48.642;9.008;2023-02-28T15:42:32;12.48;;;8.75;;
29006;SDS011;16104;48.642;9.008;2023-02-28T15:47:28;20.23;;;11.05;;
29006;SDS011;16104;48.642;9.008;2023-02-28T15:52:28;23.05;;;14.55;;
29006;SDS011;16104;48.642;9.008;2023-02-28T15:57:29;19.30;;;13.73;;
29006;SDS011;16104;48.642;9.008;2023-02-28T16:02:34;17.73;;;12.27;;
29006;SDS011;16104;48.642;9.008;2023-02-28T16:07:32;22.67;;;15.25;;
29006;SDS011;16104;48.642;9.008;2023-02-28T16:12:32;14.45;;;10.20;;
29006;SDS011;16104;48.642;9.008;2023-02-28T16:17:30;17.40;;;12.77;;
29006;SDS011;16104;48.642;9.008;2023-02-28T16:22:28;15.83;;;11.10;;
29006;SDS011;16104;48.642;9.008;2023-02-28T16:27:31;15.25;;;11.85;;
29006;SDS011;16104;48.642;9.008;2023-02-28T16:32:30;11.50;;;9.55;;
29006;SDS011;16104;48.642;9.008;2023-02-28T16:37:29;14.27;;;9.35;;
29006;SDS011;16104;48.642;9.008;2023-02-28T16:42:25;14.93;;;9.77;;
29006;SDS011;16104;48.642;9.008;2023-02-28T16:47:23;12.73;;;8.85;;
29006;SDS011;16104;48.642;9.008;2023-02-28T16:52:21;12.27;;;8.95;;
29006;SDS011;16104;48.642;9.008;2023-02-28T16:57:18;30.45;;;19.08;;
29006;SDS011;16104;48.642;9.008;2023-02-28T17:02:17;28.77;;;20.20;;
29006;SDS011;16104;48.642;9.008;2023-02-28T17:07:14;15.30;;;9.93;;
29006;SDS011;16104;48.642;9.008;2023-02-28T17:12:11;12.40;;;9.63;;
29006;SDS011;16104;48.642;9.008;2023-02-28T17:17:07;15.75;;;11.70;;
29006;SDS011;16104;48.642;9.008;2023-02-28T17:22:10;15.77;;;11.50;;
29006;SDS011;16104;48.642;9.008;2023-02-28T17:27:08;19.35;;;12.68;;
29006;SDS011;16104;48.642;9.008;2023-02-28T17:32:06;17.10;;;11.37;;
29006;SDS011;16104;48.642;9.008;2023-02-28T17:37:01;16.92;;;12.02;;
29006;SDS011;16104;48.642;9.008;2023-02-28T17:41:57;14.18;;;10.07;;
29006;SDS011;16104;48.642;9.008;2023-02-28T17:46:53;16.92;;;10.70;;
29006;SDS011;16104;48.642;9.008;2023-02-28T17:51:49;15.95;;;11.18;;
29006;SDS011;16104;48.642;9.008;2023-02-28T17:56:45;17.77;;;12.20;;
29006;SDS011;16104;48.642;9.008;2023-02-28T18:01:41;17.58;;;11.48;;
29006;SDS011;16104;48.642;9.008;2023-02-28T18:06:37;15.75;;;11.63;;
29006;SDS011;16104;48.642;9.008;2023-02-28T18:11:41;19.52;;;14.65;;
29006;SDS011;16104;48.642;9.008;2023-02-28T18:16:38;19.08;;;14.20;;
29006;SDS011;16104;48.642;9.008;2023-02-28T18:21:34;17.75;;;11.85;;
29006;SDS011;16104;48.642;9.008;2023-02-28T18:26:30;15.02;;;10.75;;
29006;SDS011;16104;48.642;9.008;2023-02-28T18:31:25;15.75;;;11.00;;
29006;SDS011;16104;48.642;9.008;2023-02-28T18:36:21;15.80;;;11.40;;
29006;SDS011;16104;48.642;9.008;2023-02-28T18:41:17;15.20;;;10.88;;
29006;SDS011;16104;48.642;9.008;2023-02-28T18:46:16;21.73;;;14.43;;
29006;SDS011;16104;48.642;9.008;2023-02-28T18:51:14;19.15;;;12.40;;
29006;SDS011;16104;48.642;9.008;2023-02-28T18:56:12;25.48;;;13.55;;
29006;SDS011;16104;48.642;9.008;2023-02-28T19:01:14;19.60;;;12.93;;
29006;SDS011;16104;48.642;9.008;2023-02-28T19:06:16;35.03;;;21.77;;
29006;SDS011;16104;48.642;9.008;2023-02-28T19:11:13;32.33;;;15.65;;
29006;SDS011;16104;48.642;9.008;2023-02-28T19:16:11;52.25;;;33.10;;
29006;SDS011;16104;48.642;9.008;2023-02-28T19:21:11;23.20;;;14.32;;
29006;SDS011;16104;48.642;9.008;2023-02-28T19:26:15;20.15;;;12.30;;
29006;SDS011;16104;48.642;9.008;2023-02-28T19:31:16;23.85;;;12.65;;
29006;SDS011;16104;48.642;9.008;2023-02-28T19:36:13;26.75;;;16.23;;
29006;SDS011;16104;48.642;9.008;2023-02-28T19:41:10;24.95;;;14.82;;
29006;SDS011;16104;48.642;9.008;2023-02-28T19:46:07;20.88;;;12.05;;
29006;SDS011;16104;48.642;9.008;2023-02-28T19:51:07;17.38;;;11.63;;
29006;SDS011;16104;48.642;9.008;2023-02-28T19:56:03;15.32;;;10.88;;
29006;SDS011;16104;48.642;9.008;2023-02-28T20:01:07;18.30;;;11.45;;
29006;SDS011;16104;48.642;9.008;2023-02-28T20:06:04;16.75;;;10.02;;
29006;SDS011;16104;48.642;9.008;2023-02-28T20:11:04;16.73;;;11.05;;
29006;SDS011;16104;48.642;9.008;2023-02-28T20:16:02;21.08;;;11.77;;
29006;SDS011;16104;48.642;9.008;2023-02-28T20:21:00;20.20;;;13.75;;
29006;SDS011;16104;48.642;9.008;2023-02-28T20:25:59;23.90;;;13.93;;
29006;SDS011;16104;48.642;9.008;2023-02-28T20:30:55;18.88;;;11.93;;
29006;SDS011;16104;48.642;9.008;2023-02-28T20:35:57;18.30;;;12.23;;
29006;SDS011;16104;48.642;9.008;2023-02-28T20:40:54;18.27;;;12.40;;
29006;SDS011;16104;48.642;9.008;2023-02-28T20:45:51;19.45;;;13.15;;
29006;SDS011;16104;48.642;9.008;2023-02-28T20:50:57;20.05;;;12.55;;
29006;SDS011;16104;48.642;9.008;2023-02-28T20:55:57;19.52;;;12.13;;
29006;SDS011;16104;48.642;9.008;2023-02-28T21:01:03;16.08;;;10.68;;
29006;SDS011;16104;48.642;9.008;2023-02-28T21:06:09;18.55;;;11.23;;
29006;SDS011;16104;48.642;9.008;2023-02-28T21:11:16;28.70;;;14.27;;
29006;SDS011;16104;48.642;9.008;2023-02-28T21:16:15;25.73;;;14.68;;
29006;SDS011;16104;48.642;9.008;2023-02-28T21:21:14;26.73;;;15.77;;
29006;SDS011;16104;48.642;9.008;2023-02-28T21:26:12;20.55;;;13.60;;
29006;SDS011;16104;48.642;9.008;2023-02-28T21:31:11;18.17;;;12.27;;
29006;SDS011;16104;48.642;9.008;2023-02-28T21:36:10;20.60;;;14.18;;
29006;SDS011;16104;48.642;9.008;2023-02-28T21:41:12;26.42;;;16.00;;
29006;SDS011;16104;48.642;9.008;2023-02-28T21:46:11;112.05;;;61.60;;
29006;SDS011;16104;48.642;9.008;2023-02-28T21:51:11;82.00;;;41.30;;
29006;SDS011;16104;48.642;9.008;2023-02-28T21:56:11;52.37;;;27.63;;
29006;SDS011;16104;48.642;9.008;2023-02-28T22:01:13;39.92;;;20.45;;
29006;SDS011;16104;48.642;9.008;2023-02-28T22:06:17;102.82;;;43.13;;
29006;SDS011;16104;48.642;9.008;2023-02-28T22:11:15;36.10;;;23.85;;
29006;SDS011;16104;48.642;9.008;2023-02-28T22:16:12;24.13;;;13.60;;
29006;SDS011;16104;48.642;9.008;2023-02-28T22:21:10;24.17;;;14.75;;
29006;SDS011;16104;48.642;9.008;2023-02-28T22:26:08;26.30;;;14.23;;
29006;SDS011;16104;48.642;9.008;2023-02-28T22:31:12;22.48;;;13.55;;
29006;SDS011;16104;48.642;9.008;2023-02-28T22:36:10;21.20;;;13.48;;
29006;SDS011;16104;48.642;9.008;2023-02-28T22:41:07;19.40;;;12.20;;
29006;SDS011;16104;48.642;9.008;2023-02-28T22:46:03;20.88;;;12.48;;
29006;SDS011;16104;48.642;9.008;2023-02-28T22:51:08;18.25;;;10.13;;
29006;SDS011;16104;48.642;9.008;2023-02-28T22:56:09;21.10;;;12.20;;
29006;SDS011;16104;48.642;9.008;2023-02-28T23:06:26;20.13;;;13.45;;
29006;SDS011;16104;48.642;9.008;2023-02-28T23:11:22;24.80;;;12.25;;
29006;SDS011;16104;48.642;9.008;2023-02-28T23:16:34;20.60;;;12.20;;
29006;SDS011;16104;48.642;9.008;2023-02-28T23:21:37;19.77;;;12.20;;
29006;SDS011;16104;48.642;9.008;2023-02-28T23:26:33;19.23;;;11.10;;
29006;SDS011;16104;48.642;9.008;2023-02-28T23:31:28;18.20;;;12.00;;
29006;SDS011;16104;48.642;9.008;2023-02-28T23:36:24;18.98;;;13.27;;
29006;SDS011;16104;48.642;9.008;2023-02-28T23:41:20;22.83;;;15.05;;
29006;SDS011;16104;48.642;9.008;2023-02-28T23:46:16;18.30;;;11.93;;
29006;SDS011;16104;48.642;9.008;2023-02-28T23:51:14;21.05;;;12.48;;
29006;SDS011;16104;48.642;9.008;2023-02-28T23:56:12;20.08;;;12.65;;
